sensor_id;sensor_type;location;lat;lon;timestamp;P1;durP1;ratioP1;P2;durP2;ratioP2
17727;SDS011;8984;49.268;12.302;2022-08-01T00:02:02;4.38;;;2.97;;
17727;SDS011;8984;49.268;12.302;2022-08-01T00:04:32;3.40;;;3.10;;
17727;SDS011;8984;49.268;12.302;2022-08-01T00:06:58;3.50;;;3.20;;
17727;SDS011;8984;49.268;12.302;2022-08-01T00:09:25;3.45;;;3.15;;
17727;SDS011;8984;49.268;12.302;2022-08-01T00:11:52;4.35;;;3.25;;
17727;SDS011;8984;49.268;12.302;2022-08-01T00:14:20;4.03;;;3.28;;
17727;SDS011;8984;49.268;12.302;2022-08-01T00:16:47;5.75;;;2.70;;
17727;SDS011;8984;49.268;12.302;2022-08-01T00:19:14;3.05;;;2.80;;
17727;SDS011;8984;49.268;12.302;2022-08-01T00:21:41;3.47;;;3.15;;
17727;SDS011;8984;49.268;12.302;2022-08-01T00:24:09;3.40;;;3.10;;
17727;SDS011;8984;49.268;12.302;2022-08-01T00:26:36;4.97;;;2.97;;
17727;SDS011;8984;49.268;12.302;2022-08-01T00:29:04;3.42;;;3.13;;
17727;SDS011;8984;49.268;12.302;2022-08-01T00:31:32;3.65;;;3.30;;
17727;SDS011;8984;49.268;12.302;2022-08-01T00:34:00;4.35;;;3.08;;
17727;SDS011;8984;49.268;12.302;2022-08-01T00:36:27;3.92;;;3.28;;
17727;SDS011;8984;49.268;12.302;2022-08-01T00:38:53;3.40;;;3.10;;
17727;SDS011;8984;49.268;12.302;2022-08-01T00:41:20;4.18;;;3.72;;
17727;SDS011;8984;49.268;12.302;2022-08-01T00:43:47;3.63;;;3.10;;
17727;SDS011;8984;49.268;12.302;2022-08-01T00:46:14;3.75;;;3.45;;
17727;SDS011;8984;49.268;12.302;2022-08-01T00:48:42;3.92;;;3.53;;
17727;SDS011;8984;49.268;12.302;2022-08-01T00:51:09;3.60;;;3.30;;
17727;SDS011;8984;49.268;12.302;2022-08-01T00:53:36;4.85;;;3.85;;
17727;SDS011;8984;49.268;12.302;2022-08-01T00:56:03;4.55;;;3.28;;
17727;SDS011;8984;49.268;12.302;2022-08-01T00:58:31;3.53;;;3.17;;
17727;SDS011;8984;49.268;12.302;2022-08-01T01:00:58;3.72;;;3.42;;
17727;SDS011;8984;49.268;12.302;2022-08-01T01:03:25;3.85;;;3.47;;
17727;SDS011;8984;49.268;12.302;2022-08-01T01:06:01;4.30;;;3.70;;
17727;SDS011;8984;49.268;12.302;2022-08-01T01:08:38;5.28;;;3.88;;
17727;SDS011;8984;49.268;12.302;2022-08-01T01:11:10;4.32;;;3.58;;
17727;SDS011;8984;49.268;12.302;2022-08-01T01:13:54;3.80;;;3.50;;
17727;SDS011;8984;49.268;12.302;2022-08-01T01:16:26;3.70;;;3.33;;
17727;SDS011;8984;49.268;12.302;2022-08-01T01:18:56;3.92;;;3.53;;
17727;SDS011;8984;49.268;12.302;2022-08-01T01:21:32;6.00;;;3.40;;
17727;SDS011;8984;49.268;12.302;2022-08-01T01:24:13;4.30;;;3.90;;
17727;SDS011;8984;49.268;12.302;2022-08-01T01:26:49;3.40;;;3.10;;
17727;SDS011;8984;49.268;12.302;2022-08-01T01:29:23;4.03;;;3.63;;
17727;SDS011;8984;49.268;12.302;2022-08-01T01:31:55;4.53;;;4.07;;
17727;SDS011;8984;49.268;12.302;2022-08-01T01:34:25;3.70;;;3.40;;
17727;SDS011;8984;49.268;12.302;2022-08-01T01:36:54;4.57;;;3.70;;
17727;SDS011;8984;49.268;12.302;2022-08-01T01:39:24;4.83;;;4.33;;
17727;SDS011;8984;49.268;12.302;2022-08-01T01:41:53;4.53;;;4.13;;
17727;SDS011;8984;49.268;12.302;2022-08-01T01:44:22;3.83;;;3.53;;
17727;SDS011;8984;49.268;12.302;2022-08-01T01:46:51;4.10;;;3.70;;
17727;SDS011;8984;49.268;12.302;2022-08-01T01:49:19;3.70;;;3.40;;
17727;SDS011;8984;49.268;12.302;2022-08-01T01:51:47;3.90;;;3.60;;
17727;SDS011;8984;49.268;12.302;2022-08-01T01:54:16;7.20;;;4.17;;
17727;SDS011;8984;49.268;12.302;2022-08-01T01:56:44;4.37;;;3.97;;
17727;SDS011;8984;49.268;12.302;2022-08-01T01:59:15;4.20;;;3.80;;
17727;SDS011;8984;49.268;12.302;2022-08-01T02:01:47;4.30;;;3.87;;
17727;SDS011;8984;49.268;12.302;2022-08-01T02:04:17;3.83;;;3.43;;
17727;SDS011;8984;49.268;12.302;2022-08-01T02:06:46;4.60;;;3.73;;
17727;SDS011;8984;49.268;12.302;2022-08-01T02:09:16;4.07;;;3.67;;
17727;SDS011;8984;49.268;12.302;2022-08-01T02:11:46;5.63;;;3.97;;
17727;SDS011;8984;49.268;12.302;2022-08-01T02:14:14;4.93;;;4.10;;
17727;SDS011;8984;49.268;12.302;2022-08-01T02:16:42;4.60;;;4.20;;
17727;SDS011;8984;49.268;12.302;2022-08-01T02:19:14;4.70;;;4.20;;
17727;SDS011;8984;49.268;12.302;2022-08-01T02:21:44;4.40;;;3.87;;
17727;SDS011;8984;49.268;12.302;2022-08-01T02:24:14;4.83;;;3.97;;
17727;SDS011;8984;49.268;12.302;2022-08-01T02:26:49;4.97;;;3.87;;
17727;SDS011;8984;49.268;12.302;2022-08-01T02:29:21;4.60;;;4.20;;
17727;SDS011;8984;49.268;12.302;2022-08-01T02:32:04;4.93;;;4.50;;
17727;SDS011;8984;49.268;12.302;2022-08-01T02:34:36;6.50;;;4.60;;
17727;SDS011;8984;49.268;12.302;2022-08-01T02:37:02;5.30;;;3.87;;
17727;SDS011;8984;49.268;12.302;2022-08-01T02:39:31;4.37;;;3.97;;
17727;SDS011;8984;49.268;12.302;2022-08-01T02:42:02;4.50;;;4.10;;
17727;SDS011;8984;49.268;12.302;2022-08-01T02:44:35;5.73;;;4.17;;
17727;SDS011;8984;49.268;12.302;2022-08-01T02:47:04;4.57;;;4.10;;
17727;SDS011;8984;49.268;12.302;2022-08-01T02:49:33;5.27;;;4.33;;
17727;SDS011;8984;49.268;12.302;2022-08-01T02:52:06;4.77;;;4.23;;
17727;SDS011;8984;49.268;12.302;2022-08-01T02:54:34;4.53;;;4.13;;
17727;SDS011;8984;49.268;12.302;2022-08-01T02:57:03;4.83;;;4.43;;
17727;SDS011;8984;49.268;12.302;2022-08-01T02:59:32;5.77;;;4.77;;
17727;SDS011;8984;49.268;12.302;2022-08-01T03:02:03;5.00;;;4.40;;
17727;SDS011;8984;49.268;12.302;2022-08-01T03:04:31;4.60;;;4.10;;
17727;SDS011;8984;49.268;12.302;2022-08-01T03:07:02;4.73;;;4.33;;
17727;SDS011;8984;49.268;12.302;2022-08-01T03:09:32;4.17;;;3.80;;
17727;SDS011;8984;49.268;12.302;2022-08-01T03:12:02;5.10;;;4.60;;
17727;SDS011;8984;49.268;12.302;2022-08-01T03:14:35;4.17;;;3.80;;
17727;SDS011;8984;49.268;12.302;2022-08-01T03:17:04;4.30;;;4.00;;
17727;SDS011;8984;49.268;12.302;2022-08-01T03:19:33;4.70;;;4.20;;
17727;SDS011;8984;49.268;12.302;2022-08-01T03:22:04;4.80;;;4.40;;
17727;SDS011;8984;49.268;12.302;2022-08-01T03:24:34;4.87;;;4.37;;
17727;SDS011;8984;49.268;12.302;2022-08-01T03:27:03;4.63;;;4.20;;
17727;SDS011;8984;49.268;12.302;2022-08-01T03:29:32;7.60;;;4.43;;
17727;SDS011;8984;49.268;12.302;2022-08-01T03:31:59;3.87;;;3.53;;
17727;SDS011;8984;49.268;12.302;2022-08-01T03:34:27;3.80;;;3.50;;
17727;SDS011;8984;49.268;12.302;2022-08-01T03:36:55;4.70;;;4.23;;
17727;SDS011;8984;49.268;12.302;2022-08-01T03:39:29;5.37;;;3.87;;
17727;SDS011;8984;49.268;12.302;2022-08-01T03:42:01;5.00;;;4.60;;
17727;SDS011;8984;49.268;12.302;2022-08-01T03:44:32;5.10;;;3.93;;
17727;SDS011;8984;49.268;12.302;2022-08-01T03:47:04;4.30;;;3.80;;
17727;SDS011;8984;49.268;12.302;2022-08-01T03:49:35;5.40;;;4.63;;
17727;SDS011;8984;49.268;12.302;2022-08-01T03:52:07;4.60;;;4.10;;
17727;SDS011;8984;49.268;12.302;2022-08-01T03:54:37;5.40;;;4.77;;
17727;SDS011;8984;49.268;12.302;2022-08-01T03:57:07;4.87;;;4.47;;
17727;SDS011;8984;49.268;12.302;2022-08-01T03:59:36;4.60;;;4.20;;
17727;SDS011;8984;49.268;12.302;2022-08-01T04:02:05;4.70;;;4.23;;
17727;SDS011;8984;49.268;12.302;2022-08-01T04:04:33;4.50;;;4.10;;
17727;SDS011;8984;49.268;12.302;2022-08-01T04:07:00;6.17;;;4.60;;
17727;SDS011;8984;49.268;12.302;2022-08-01T04:09:31;8.50;;;4.40;;
17727;SDS011;8984;49.268;12.302;2022-08-01T04:11:59;6.13;;;4.90;;
17727;SDS011;8984;49.268;12.302;2022-08-01T04:14:27;5.63;;;4.10;;
17727;SDS011;8984;49.268;12.302;2022-08-01T04:16:54;4.93;;;4.30;;
17727;SDS011;8984;49.268;12.302;2022-08-01T04:19:21;5.27;;;4.10;;
17727;SDS011;8984;49.268;12.302;2022-08-01T04:21:50;7.13;;;3.87;;
17727;SDS011;8984;49.268;12.302;2022-08-01T04:24:18;4.88;;;3.72;;
17727;SDS011;8984;49.268;12.302;2022-08-01T04:26:46;4.53;;;4.13;;
17727;SDS011;8984;49.268;12.302;2022-08-01T04:29:17;6.30;;;4.05;;
17727;SDS011;8984;49.268;12.302;2022-08-01T04:31:46;4.00;;;3.42;;
17727;SDS011;8984;49.268;12.302;2022-08-01T04:34:17;4.65;;;3.38;;
17727;SDS011;8984;49.268;12.302;2022-08-01T04:36:46;3.80;;;3.40;;
17727;SDS011;8984;49.268;12.302;2022-08-01T04:39:15;4.88;;;3.20;;
17727;SDS011;8984;49.268;12.302;2022-08-01T04:41:46;3.95;;;3.15;;
17727;SDS011;8984;49.268;12.302;2022-08-01T04:44:14;3.47;;;3.15;;
17727;SDS011;8984;49.268;12.302;2022-08-01T04:46:42;3.45;;;2.80;;
17727;SDS011;8984;49.268;12.302;2022-08-01T04:49:13;3.17;;;2.88;;
17727;SDS011;8984;49.268;12.302;2022-08-01T04:51:49;3.13;;;2.85;;
17727;SDS011;8984;49.268;12.302;2022-08-01T04:54:17;4.68;;;3.28;;
17727;SDS011;8984;49.268;12.302;2022-08-01T04:56:44;3.10;;;2.80;;
17727;SDS011;8984;49.268;12.302;2022-08-01T04:59:11;5.15;;;2.85;;
17727;SDS011;8984;49.268;12.302;2022-08-01T05:01:57;3.15;;;2.85;;
17727;SDS011;8984;49.268;12.302;2022-08-01T05:04:23;2.97;;;2.70;;
17727;SDS011;8984;49.268;12.302;2022-08-01T05:06:51;3.60;;;2.83;;
17727;SDS011;8984;49.268;12.302;2022-08-01T05:09:17;4.20;;;2.88;;
17727;SDS011;8984;49.268;12.302;2022-08-01T05:11:45;3.95;;;2.58;;
17727;SDS011;8984;49.268;12.302;2022-08-01T05:14:12;4.25;;;3.00;;
17727;SDS011;8984;49.268;12.302;2022-08-01T05:16:39;3.83;;;2.67;;
17727;SDS011;8984;49.268;12.302;2022-08-01T05:19:08;3.38;;;2.80;;
17727;SDS011;8984;49.268;12.302;2022-08-01T05:21:35;5.13;;;2.70;;
17727;SDS011;8984;49.268;12.302;2022-08-01T05:24:02;3.05;;;2.47;;
17727;SDS011;8984;49.268;12.302;2022-08-01T05:26:30;4.90;;;2.58;;
17727;SDS011;8984;49.268;12.302;2022-08-01T05:28:56;3.92;;;2.70;;
17727;SDS011;8984;49.268;12.302;2022-08-01T05:31:23;5.28;;;3.05;;
17727;SDS011;8984;49.268;12.302;2022-08-01T05:33:50;3.38;;;2.40;;
17727;SDS011;8984;49.268;12.302;2022-08-01T05:36:18;9.88;;;2.75;;
17727;SDS011;8984;49.268;12.302;2022-08-01T05:38:45;2.90;;;2.58;;
17727;SDS011;8984;49.268;12.302;2022-08-01T05:41:12;6.97;;;2.45;;
17727;SDS011;8984;49.268;12.302;2022-08-01T05:43:38;4.30;;;2.88;;
17727;SDS011;8984;49.268;12.302;2022-08-01T05:46:05;4.75;;;2.83;;
17727;SDS011;8984;49.268;12.302;2022-08-01T05:48:32;3.78;;;2.70;;
17727;SDS011;8984;49.268;12.302;2022-08-01T05:50:59;3.75;;;2.70;;
17727;SDS011;8984;49.268;12.302;2022-08-01T05:53:27;5.10;;;2.30;;
17727;SDS011;8984;49.268;12.302;2022-08-01T05:55:54;4.40;;;2.40;;
17727;SDS011;8984;49.268;12.302;2022-08-01T05:58:21;5.53;;;2.33;;
17727;SDS011;8984;49.268;12.302;2022-08-01T06:00:48;3.25;;;2.45;;
17727;SDS011;8984;49.268;12.302;2022-08-01T06:03:15;3.05;;;2.05;;
17727;SDS011;8984;49.268;12.302;2022-08-01T06:05:41;2.35;;;2.00;;
17727;SDS011;8984;49.268;12.302;2022-08-01T06:08:08;3.15;;;2.00;;
17727;SDS011;8984;49.268;12.302;2022-08-01T06:10:36;4.28;;;2.08;;
17727;SDS011;8984;49.268;12.302;2022-08-01T06:13:03;2.58;;;1.73;;
17727;SDS011;8984;49.268;12.302;2022-08-01T06:15:30;4.28;;;2.28;;
17727;SDS011;8984;49.268;12.302;2022-08-01T06:17:57;4.55;;;2.42;;
17727;SDS011;8984;49.268;12.302;2022-08-01T06:20:23;4.78;;;2.28;;
17727;SDS011;8984;49.268;12.302;2022-08-01T06:22:50;11.02;;;2.78;;
17727;SDS011;8984;49.268;12.302;2022-08-01T06:25:17;4.03;;;2.40;;
17727;SDS011;8984;49.268;12.302;2022-08-01T06:27:45;4.75;;;2.45;;
17727;SDS011;8984;49.268;12.302;2022-08-01T06:30:12;3.67;;;1.80;;
17727;SDS011;8984;49.268;12.302;2022-08-01T06:32:39;4.40;;;2.28;;
17727;SDS011;8984;49.268;12.302;2022-08-01T06:35:06;2.80;;;2.28;;
17727;SDS011;8984;49.268;12.302;2022-08-01T06:37:34;3.92;;;2.00;;
17727;SDS011;8984;49.268;12.302;2022-08-01T06:40:01;2.25;;;1.90;;
17727;SDS011;8984;49.268;12.302;2022-08-01T06:42:28;2.63;;;1.73;;
17727;SDS011;8984;49.268;12.302;2022-08-01T06:44:57;3.88;;;2.33;;
17727;SDS011;8984;49.268;12.302;2022-08-01T06:47:24;4.05;;;1.80;;
17727;SDS011;8984;49.268;12.302;2022-08-01T06:49:51;3.72;;;1.83;;
17727;SDS011;8984;49.268;12.302;2022-08-01T06:52:18;3.25;;;1.88;;
17727;SDS011;8984;49.268;12.302;2022-08-01T06:54:44;3.42;;;1.88;;
17727;SDS011;8984;49.268;12.302;2022-08-01T06:57:11;2.40;;;2.00;;
17727;SDS011;8984;49.268;12.302;2022-08-01T06:59:38;2.63;;;1.70;;
17727;SDS011;8984;49.268;12.302;2022-08-01T07:02:06;3.35;;;1.90;;
17727;SDS011;8984;49.268;12.302;2022-08-01T07:04:33;3.95;;;1.80;;
17727;SDS011;8984;49.268;12.302;2022-08-01T07:07:00;1.75;;;1.42;;
17727;SDS011;8984;49.268;12.302;2022-08-01T07:09:27;5.28;;;1.85;;
17727;SDS011;8984;49.268;12.302;2022-08-01T07:11:54;2.83;;;1.73;;
17727;SDS011;8984;49.268;12.302;2022-08-01T07:14:22;2.90;;;1.88;;
17727;SDS011;8984;49.268;12.302;2022-08-01T07:16:49;2.28;;;1.52;;
17727;SDS011;8984;49.268;12.302;2022-08-01T07:19:17;3.70;;;1.63;;
17727;SDS011;8984;49.268;12.302;2022-08-01T07:21:44;4.05;;;1.75;;
17727;SDS011;8984;49.268;12.302;2022-08-01T07:24:12;2.33;;;1.60;;
17727;SDS011;8984;49.268;12.302;2022-08-01T07:26:40;5.28;;;1.67;;
17727;SDS011;8984;49.268;12.302;2022-08-01T07:29:08;2.38;;;1.90;;
17727;SDS011;8984;49.268;12.302;2022-08-01T07:31:35;4.13;;;1.83;;
17727;SDS011;8984;49.268;12.302;2022-08-01T07:34:02;4.35;;;1.70;;
17727;SDS011;8984;49.268;12.302;2022-08-01T07:36:30;2.03;;;1.40;;
17727;SDS011;8984;49.268;12.302;2022-08-01T07:38:57;4.68;;;1.50;;
17727;SDS011;8984;49.268;12.302;2022-08-01T07:41:24;2.25;;;1.40;;
17727;SDS011;8984;49.268;12.302;2022-08-01T07:43:50;2.38;;;1.70;;
17727;SDS011;8984;49.268;12.302;2022-08-01T07:46:17;2.55;;;1.48;;
17727;SDS011;8984;49.268;12.302;2022-08-01T07:48:44;3.22;;;1.50;;
17727;SDS011;8984;49.268;12.302;2022-08-01T07:51:11;2.13;;;1.70;;
17727;SDS011;8984;49.268;12.302;2022-08-01T07:53:39;2.40;;;1.50;;
17727;SDS011;8984;49.268;12.302;2022-08-01T07:56:05;4.28;;;1.75;;
17727;SDS011;8984;49.268;12.302;2022-08-01T07:58:33;2.53;;;1.50;;
17727;SDS011;8984;49.268;12.302;2022-08-01T08:01:00;3.55;;;1.50;;
17727;SDS011;8984;49.268;12.302;2022-08-01T08:03:26;4.68;;;1.50;;
17727;SDS011;8984;49.268;12.302;2022-08-01T08:05:53;2.70;;;1.50;;
17727;SDS011;8984;49.268;12.302;2022-08-01T08:08:20;1.70;;;1.50;;
17727;SDS011;8984;49.268;12.302;2022-08-01T08:10:48;2.20;;;1.50;;
17727;SDS011;8984;49.268;12.302;2022-08-01T08:13:15;4.78;;;1.48;;
17727;SDS011;8984;49.268;12.302;2022-08-01T08:15:42;2.13;;;1.50;;
17727;SDS011;8984;49.268;12.302;2022-08-01T08:18:09;3.00;;;1.90;;
17727;SDS011;8984;49.268;12.302;2022-08-01T08:20:35;2.45;;;1.70;;
17727;SDS011;8984;49.268;12.302;2022-08-01T08:23:02;4.57;;;1.58;;
17727;SDS011;8984;49.268;12.302;2022-08-01T08:25:50;3.13;;;1.70;;
17727;SDS011;8984;49.268;12.302;2022-08-01T08:28:17;4.60;;;1.52;;
17727;SDS011;8984;49.268;12.302;2022-08-01T08:30:44;3.35;;;1.48;;
17727;SDS011;8984;49.268;12.302;2022-08-01T08:33:11;2.10;;;1.33;;
17727;SDS011;8984;49.268;12.302;2022-08-01T08:35:38;2.03;;;1.20;;
17727;SDS011;8984;49.268;12.302;2022-08-01T08:38:06;2.63;;;1.73;;
17727;SDS011;8984;49.268;12.302;2022-08-01T08:40:34;2.22;;;1.50;;
17727;SDS011;8984;49.268;12.302;2022-08-01T08:43:03;3.33;;;1.10;;
17727;SDS011;8984;49.268;12.302;2022-08-01T08:45:31;2.13;;;1.25;;
17727;SDS011;8984;49.268;12.302;2022-08-01T08:47:58;2.00;;;1.27;;
17727;SDS011;8984;49.268;12.302;2022-08-01T08:50:25;2.20;;;0.93;;
17727;SDS011;8984;49.268;12.302;2022-08-01T08:52:52;3.03;;;1.20;;
17727;SDS011;8984;49.268;12.302;2022-08-01T08:55:21;3.78;;;1.20;;
17727;SDS011;8984;49.268;12.302;2022-08-01T08:57:49;3.05;;;1.10;;
17727;SDS011;8984;49.268;12.302;2022-08-01T09:00:19;1.95;;;0.90;;
17727;SDS011;8984;49.268;12.302;2022-08-01T09:02:46;3.83;;;1.00;;
17727;SDS011;8984;49.268;12.302;2022-08-01T09:05:15;2.70;;;0.80;;
17727;SDS011;8984;49.268;12.302;2022-08-01T09:07:43;1.85;;;0.80;;
17727;SDS011;8984;49.268;12.302;2022-08-01T09:10:10;1.48;;;0.77;;
17727;SDS011;8984;49.268;12.302;2022-08-01T09:12:37;1.95;;;1.08;;
17727;SDS011;8984;49.268;12.302;2022-08-01T09:15:04;2.28;;;0.80;;
17727;SDS011;8984;49.268;12.302;2022-08-01T09:17:40;2.00;;;0.80;;
17727;SDS011;8984;49.268;12.302;2022-08-01T09:20:07;1.38;;;0.80;;
17727;SDS011;8984;49.268;12.302;2022-08-01T09:22:47;1.35;;;0.80;;
17727;SDS011;8984;49.268;12.302;2022-08-01T09:25:14;1.45;;;0.98;;
17727;SDS011;8984;49.268;12.302;2022-08-01T09:27:41;1.30;;;0.77;;
17727;SDS011;8984;49.268;12.302;2022-08-01T09:30:09;1.30;;;1.00;;
17727;SDS011;8984;49.268;12.302;2022-08-01T09:35:23;1.60;;;0.90;;
17727;SDS011;8984;49.268;12.302;2022-08-01T09:37:51;1.30;;;0.70;;
17727;SDS011;8984;49.268;12.302;2022-08-01T09:40:43;1.67;;;0.90;;
17727;SDS011;8984;49.268;12.302;2022-08-01T09:43:11;3.20;;;0.80;;
17727;SDS011;8984;49.268;12.302;2022-08-01T09:45:39;2.15;;;0.70;;
17727;SDS011;8984;49.268;12.302;2022-08-01T09:48:08;2.05;;;0.80;;
17727;SDS011;8984;49.268;12.302;2022-08-01T09:50:40;1.15;;;0.90;;
17727;SDS011;8984;49.268;12.302;2022-08-01T09:53:07;1.77;;;0.80;;
17727;SDS011;8984;49.268;12.302;2022-08-01T09:55:34;2.88;;;1.00;;
17727;SDS011;8984;49.268;12.302;2022-08-01T09:58:03;2.50;;;1.02;;
17727;SDS011;8984;49.268;12.302;2022-08-01T10:00:30;1.20;;;0.70;;
17727;SDS011;8984;49.268;12.302;2022-08-01T10:02:58;2.17;;;0.80;;
17727;SDS011;8984;49.268;12.302;2022-08-01T10:05:33;1.50;;;0.88;;
17727;SDS011;8984;49.268;12.302;2022-08-01T10:08:07;3.72;;;3.25;;
17727;SDS011;8984;49.268;12.302;2022-08-01T10:10:35;6.88;;;4.82;;
17727;SDS011;8984;49.268;12.302;2022-08-01T10:13:02;19.95;;;17.85;;
17727;SDS011;8984;49.268;12.302;2022-08-01T10:15:30;1.80;;;1.63;;
17727;SDS011;8984;49.268;12.302;2022-08-01T10:17:59;3.78;;;3.40;;
17727;SDS011;8984;49.268;12.302;2022-08-01T10:20:28;1.95;;;1.65;;
17727;SDS011;8984;49.268;12.302;2022-08-01T10:22:59;4.07;;;2.72;;
17727;SDS011;8984;49.268;12.302;2022-08-01T10:25:27;8.32;;;2.10;;
17727;SDS011;8984;49.268;12.302;2022-08-01T10:27:59;4.15;;;1.65;;
17727;SDS011;8984;49.268;12.302;2022-08-01T10:30:30;3.33;;;2.40;;
17727;SDS011;8984;49.268;12.302;2022-08-01T10:32:57;5.18;;;3.63;;
17727;SDS011;8984;49.268;12.302;2022-08-01T10:35:28;1.98;;;1.20;;
17727;SDS011;8984;49.268;12.302;2022-08-01T10:37:56;2.75;;;1.40;;
17727;SDS011;8984;49.268;12.302;2022-08-01T10:40:25;2.40;;;1.75;;
17727;SDS011;8984;49.268;12.302;2022-08-01T10:42:54;2.47;;;1.45;;
17727;SDS011;8984;49.268;12.302;2022-08-01T10:45:23;5.35;;;1.70;;
17727;SDS011;8984;49.268;12.302;2022-08-01T10:47:53;4.03;;;1.60;;
17727;SDS011;8984;49.268;12.302;2022-08-01T10:50:25;2.05;;;1.30;;
17727;SDS011;8984;49.268;12.302;2022-08-01T10:53:07;1.88;;;1.63;;
17727;SDS011;8984;49.268;12.302;2022-08-01T10:55:46;2.90;;;1.90;;
17727;SDS011;8984;49.268;12.302;2022-08-01T10:58:19;2.58;;;1.52;;
17727;SDS011;8984;49.268;12.302;2022-08-01T11:00:47;2.92;;;1.20;;
17727;SDS011;8984;49.268;12.302;2022-08-01T11:03:13;1.40;;;1.05;;
17727;SDS011;8984;49.268;12.302;2022-08-01T11:05:40;1.98;;;1.20;;
17727;SDS011;8984;49.268;12.302;2022-08-01T11:08:20;3.42;;;0.85;;
17727;SDS011;8984;49.268;12.302;2022-08-01T11:10:48;2.78;;;0.80;;
17727;SDS011;8984;49.268;12.302;2022-08-01T11:16:26;2.33;;;0.98;;
17727;SDS011;8984;49.268;12.302;2022-08-01T11:18:54;1.80;;;1.00;;
17727;SDS011;8984;49.268;12.302;2022-08-01T11:21:21;3.33;;;0.85;;
17727;SDS011;8984;49.268;12.302;2022-08-01T11:23:52;3.28;;;0.80;;
17727;SDS011;8984;49.268;12.302;2022-08-01T11:26:19;1.13;;;0.75;;
17727;SDS011;8984;49.268;12.302;2022-08-01T11:31:37;1.50;;;1.10;;
17727;SDS011;8984;49.268;12.302;2022-08-01T11:34:04;2.17;;;1.05;;
17727;SDS011;8984;49.268;12.302;2022-08-01T11:36:33;0.88;;;0.77;;
17727;SDS011;8984;49.268;12.302;2022-08-01T11:41:47;4.40;;;1.00;;
17727;SDS011;8984;49.268;12.302;2022-08-01T11:44:21;1.83;;;1.00;;
17727;SDS011;8984;49.268;12.302;2022-08-01T11:47:00;1.45;;;0.80;;
17727;SDS011;8984;49.268;12.302;2022-08-01T11:49:43;3.22;;;0.90;;
17727;SDS011;8984;49.268;12.302;2022-08-01T11:52:23;2.92;;;1.00;;
17727;SDS011;8984;49.268;12.302;2022-08-01T11:54:53;3.05;;;0.95;;
17727;SDS011;8984;49.268;12.302;2022-08-01T11:57:22;2.95;;;0.80;;
17727;SDS011;8984;49.268;12.302;2022-08-01T11:59:51;1.15;;;0.98;;
17727;SDS011;8984;49.268;12.302;2022-08-01T12:02:20;1.30;;;0.88;;
17727;SDS011;8984;49.268;12.302;2022-08-01T12:04:48;2.13;;;1.00;;
17727;SDS011;8984;49.268;12.302;2022-08-01T12:07:18;1.15;;;1.00;;
17727;SDS011;8984;49.268;12.302;2022-08-01T12:09:45;1.88;;;1.13;;
17727;SDS011;8984;49.268;12.302;2022-08-01T12:12:16;5.32;;;1.10;;
17727;SDS011;8984;49.268;12.302;2022-08-01T12:14:44;2.35;;;0.90;;
17727;SDS011;8984;49.268;12.302;2022-08-01T12:17:19;1.05;;;0.95;;
17727;SDS011;8984;49.268;12.302;2022-08-01T12:19:48;0.93;;;0.77;;
17727;SDS011;8984;49.268;12.302;2022-08-01T12:22:15;1.92;;;1.00;;
17727;SDS011;8984;49.268;12.302;2022-08-01T12:24:42;1.30;;;0.90;;
17727;SDS011;8984;49.268;12.302;2022-08-01T12:27:09;2.45;;;0.95;;
17727;SDS011;8984;49.268;12.302;2022-08-01T12:29:39;2.38;;;0.85;;
17727;SDS011;8984;49.268;12.302;2022-08-01T12:32:22;1.27;;;0.80;;
17727;SDS011;8984;49.268;12.302;2022-08-01T12:34:51;1.40;;;1.00;;
17727;SDS011;8984;49.268;12.302;2022-08-01T12:37:19;1.67;;;0.90;;
17727;SDS011;8984;49.268;12.302;2022-08-01T12:39:46;2.90;;;1.00;;
17727;SDS011;8984;49.268;12.302;2022-08-01T12:42:13;2.35;;;1.02;;
17727;SDS011;8984;49.268;12.302;2022-08-01T12:44:43;2.08;;;0.93;;
17727;SDS011;8984;49.268;12.302;2022-08-01T12:47:14;1.00;;;0.80;;
17727;SDS011;8984;49.268;12.302;2022-08-01T12:49:42;0.98;;;0.70;;
17727;SDS011;8984;49.268;12.302;2022-08-01T12:52:10;1.35;;;0.90;;
17727;SDS011;8984;49.268;12.302;2022-08-01T12:57:27;1.33;;;0.95;;
17727;SDS011;8984;49.268;12.302;2022-08-01T13:00:05;2.35;;;0.90;;
17727;SDS011;8984;49.268;12.302;2022-08-01T13:02:43;1.65;;;1.02;;
17727;SDS011;8984;49.268;12.302;2022-08-01T13:05:11;1.40;;;0.70;;
17727;SDS011;8984;49.268;12.302;2022-08-01T13:07:47;1.15;;;0.90;;
17727;SDS011;8984;49.268;12.302;2022-08-01T13:10:23;0.88;;;0.70;;
17727;SDS011;8984;49.268;12.302;2022-08-01T13:12:52;2.70;;;0.90;;
17727;SDS011;8984;49.268;12.302;2022-08-01T13:15:22;2.92;;;0.90;;
17727;SDS011;8984;49.268;12.302;2022-08-01T13:17:51;1.02;;;0.90;;
17727;SDS011;8984;49.268;12.302;2022-08-01T13:20:27;3.92;;;0.80;;
17727;SDS011;8984;49.268;12.302;2022-08-01T13:22:57;3.83;;;0.90;;
17727;SDS011;8984;49.268;12.302;2022-08-01T13:25:49;1.80;;;0.90;;
17727;SDS011;8984;49.268;12.302;2022-08-01T13:28:18;1.20;;;0.90;;
17727;SDS011;8984;49.268;12.302;2022-08-01T13:30:55;1.80;;;0.80;;
17727;SDS011;8984;49.268;12.302;2022-08-01T13:33:26;1.52;;;0.70;;
17727;SDS011;8984;49.268;12.302;2022-08-01T13:35:55;1.30;;;0.70;;
17727;SDS011;8984;49.268;12.302;2022-08-01T13:38:22;3.88;;;0.80;;
17727;SDS011;8984;49.268;12.302;2022-08-01T13:41:03;1.92;;;0.90;;
17727;SDS011;8984;49.268;12.302;2022-08-01T13:43:29;0.95;;;0.60;;
17727;SDS011;8984;49.268;12.302;2022-08-01T13:45:58;0.82;;;0.63;;
17727;SDS011;8984;49.268;12.302;2022-08-01T13:48:24;1.73;;;0.70;;
17727;SDS011;8984;49.268;12.302;2022-08-01T13:50:51;1.33;;;0.80;;
17727;SDS011;8984;49.268;12.302;2022-08-01T13:53:18;0.95;;;0.50;;
17727;SDS011;8984;49.268;12.302;2022-08-01T13:55:45;1.00;;;0.50;;
17727;SDS011;8984;49.268;12.302;2022-08-01T13:58:12;1.15;;;0.70;;
17727;SDS011;8984;49.268;12.302;2022-08-01T14:00:38;1.48;;;0.63;;
17727;SDS011;8984;49.268;12.302;2022-08-01T14:03:06;4.82;;;0.73;;
17727;SDS011;8984;49.268;12.302;2022-08-01T14:05:34;0.95;;;0.68;;
17727;SDS011;8984;49.268;12.302;2022-08-01T14:08:01;0.82;;;0.70;;
17727;SDS011;8984;49.268;12.302;2022-08-01T14:10:29;1.30;;;0.65;;
17727;SDS011;8984;49.268;12.302;2022-08-01T14:12:55;2.70;;;0.77;;
17727;SDS011;8984;49.268;12.302;2022-08-01T14:15:23;3.20;;;0.80;;
17727;SDS011;8984;49.268;12.302;2022-08-01T14:17:50;0.75;;;0.60;;
17727;SDS011;8984;49.268;12.302;2022-08-01T14:20:18;2.15;;;0.80;;
17727;SDS011;8984;49.268;12.302;2022-08-01T14:22:45;2.20;;;0.90;;
17727;SDS011;8984;49.268;12.302;2022-08-01T14:25:12;5.05;;;0.90;;
17727;SDS011;8984;49.268;12.302;2022-08-01T14:27:39;7.10;;;0.80;;
17727;SDS011;8984;49.268;12.302;2022-08-01T14:30:07;1.63;;;0.88;;
17727;SDS011;8984;49.268;12.302;2022-08-01T14:32:34;1.98;;;0.70;;
17727;SDS011;8984;49.268;12.302;2022-08-01T14:35:02;2.45;;;0.88;;
17727;SDS011;8984;49.268;12.302;2022-08-01T14:37:31;1.60;;;0.80;;
17727;SDS011;8984;49.268;12.302;2022-08-01T14:39:58;2.88;;;0.90;;
17727;SDS011;8984;49.268;12.302;2022-08-01T14:42:29;1.08;;;0.80;;
17727;SDS011;8984;49.268;12.302;2022-08-01T14:44:56;2.40;;;0.93;;
17727;SDS011;8984;49.268;12.302;2022-08-01T14:47:22;3.78;;;1.15;;
17727;SDS011;8984;49.268;12.302;2022-08-01T14:49:49;1.92;;;0.85;;
17727;SDS011;8984;49.268;12.302;2022-08-01T14:52:16;3.05;;;0.90;;
17727;SDS011;8984;49.268;12.302;2022-08-01T14:54:45;1.48;;;0.77;;
17727;SDS011;8984;49.268;12.302;2022-08-01T14:57:12;2.75;;;0.90;;
17727;SDS011;8984;49.268;12.302;2022-08-01T14:59:43;1.98;;;0.80;;
17727;SDS011;8984;49.268;12.302;2022-08-01T15:02:10;0.70;;;0.70;;
17727;SDS011;8984;49.268;12.302;2022-08-01T15:04:38;2.15;;;0.70;;
17727;SDS011;8984;49.268;12.302;2022-08-01T15:07:04;1.85;;;0.73;;
17727;SDS011;8984;49.268;12.302;2022-08-01T15:09:31;5.18;;;0.80;;
17727;SDS011;8984;49.268;12.302;2022-08-01T15:11:59;5.30;;;1.00;;
17727;SDS011;8984;49.268;12.302;2022-08-01T15:14:26;3.30;;;0.90;;